sensor_id;sensor_type;location;lat;lon;timestamp;temperature;humidity
80132;SHT30;69442;51.442;10.564;2023-07-02T00:00:03;18.57;65.05
80132;SHT30;69442;51.442;10.564;2023-07-02T00:02:30;18.55;65.15
80132;SHT30;69442;51.442;10.564;2023-07-02T00:04:55;18.52;65.12
80132;SHT30;69442;51.442;10.564;2023-07-02T00:07:21;18.52;65.36
80132;SHT30;69442;51.442;10.564;2023-07-02T00:09:46;18.49;65.41
80132;SHT30;69442;51.442;10.564;2023-07-02T00:12:13;18.46;65.32
80132;SHT30;69442;51.442;10.564;2023-07-02T00:14:39;18.42;65.34
80132;SHT30;69442;51.442;10.564;2023-07-02T00:17:04;18.38;65.29
80132;SHT30;69442;51.442;10.564;2023-07-02T00:19:29;18.38;65.21
80132;SHT30;69442;51.442;10.564;2023-07-02T00:21:55;18.36;65.40
80132;SHT30;69442;51.442;10.564;2023-07-02T00:24:21;18.33;65.43
80132;SHT30;69442;51.442;10.564;2023-07-02T00:26:46;18.29;65.46
80132;SHT30;69442;51.442;10.564;2023-07-02T00:29:12;18.28;65.52
80132;SHT30;69442;51.442;10.564;2023-07-02T00:31:37;18.26;65.59
80132;SHT30;69442;51.442;10.564;2023-07-02T00:34:03;18.24;65.55
80132;SHT30;69442;51.442;10.564;2023-07-02T00:36:30;18.22;65.84
80132;SHT30;69442;51.442;10.564;2023-07-02T00:38:56;18.21;65.67
80132;SHT30;69442;51.442;10.564;2023-07-02T00:41:22;18.18;65.74
80132;SHT30;69442;51.442;10.564;2023-07-02T00:43:47;18.15;65.76
80132;SHT30;69442;51.442;10.564;2023-07-02T00:46:14;18.14;65.68
80132;SHT30;69442;51.442;10.564;2023-07-02T00:48:47;18.11;65.63
80132;SHT30;69442;51.442;10.564;2023-07-02T00:51:20;18.08;65.72
80132;SHT30;69442;51.442;10.564;2023-07-02T00:53:46;18.09;65.67
80132;SHT30;69442;51.442;10.564;2023-07-02T00:56:12;18.11;65.57
80132;SHT30;69442;51.442;10.564;2023-07-02T00:58:40;18.08;65.55
80132;SHT30;69442;51.442;10.564;2023-07-02T01:01:06;18.11;65.52
80132;SHT30;69442;51.442;10.564;2023-07-02T01:03:32;18.06;65.58
80132;SHT30;69442;51.442;10.564;2023-07-02T01:05:58;18.08;65.85
80132;SHT30;69442;51.442;10.564;2023-07-02T01:08:24;18.04;65.57
80132;SHT30;69442;51.442;10.564;2023-07-02T01:10:50;18.04;66.00
80132;SHT30;69442;51.442;10.564;2023-07-02T01:13:19;18.00;66.18
80132;SHT30;69442;51.442;10.564;2023-07-02T01:15:45;18.00;66.13
80132;SHT30;69442;51.442;10.564;2023-07-02T01:18:12;17.98;66.51
80132;SHT30;69442;51.442;10.564;2023-07-02T01:20:39;17.94;66.27
80132;SHT30;69442;51.442;10.564;2023-07-02T01:23:05;17.97;66.56
80132;SHT30;69442;51.442;10.564;2023-07-02T01:28:03;17.91;66.34
80132;SHT30;69442;51.442;10.564;2023-07-02T01:30:28;17.88;66.31
80132;SHT30;69442;51.442;10.564;2023-07-02T01:32:53;17.87;66.20
80132;SHT30;69442;51.442;10.564;2023-07-02T01:35:19;17.87;66.17
80132;SHT30;69442;51.442;10.564;2023-07-02T01:37:44;17.87;66.16
80132;SHT30;69442;51.442;10.564;2023-07-02T01:40:10;17.86;66.08
80132;SHT30;69442;51.442;10.564;2023-07-02T01:42:35;17.86;65.94
80132;SHT30;69442;51.442;10.564;2023-07-02T01:45:01;17.84;65.94
80132;SHT30;69442;51.442;10.564;2023-07-02T01:47:26;17.86;66.46
80132;SHT30;69442;51.442;10.564;2023-07-02T01:49:52;17.83;66.77
80132;SHT30;69442;51.442;10.564;2023-07-02T01:52:17;17.81;66.15
80132;SHT30;69442;51.442;10.564;2023-07-02T01:54:43;17.84;66.68
80132;SHT30;69442;51.442;10.564;2023-07-02T01:57:09;17.78;66.90
80132;SHT30;69442;51.442;10.564;2023-07-02T01:59:35;17.80;66.37
80132;SHT30;69442;51.442;10.564;2023-07-02T02:02:00;17.78;66.47
80132;SHT30;69442;51.442;10.564;2023-07-02T02:04:26;17.77;66.20
80132;SHT30;69442;51.442;10.564;2023-07-02T02:06:52;17.76;66.16
80132;SHT30;69442;51.442;10.564;2023-07-02T02:09:18;17.73;66.20
80132;SHT30;69442;51.442;10.564;2023-07-02T02:11:47;17.76;66.51
80132;SHT30;69442;51.442;10.564;2023-07-02T02:14:13;17.77;66.62
80132;SHT30;69442;51.442;10.564;2023-07-02T02:16:38;17.73;66.76
80132;SHT30;69442;51.442;10.564;2023-07-02T02:19:04;17.70;66.90
80132;SHT30;69442;51.442;10.564;2023-07-02T02:21:30;17.69;67.05
80132;SHT30;69442;51.442;10.564;2023-07-02T02:23:55;17.69;66.75
80132;SHT30;69442;51.442;10.564;2023-07-02T02:26:22;17.66;66.82
80132;SHT30;69442;51.442;10.564;2023-07-02T02:28:48;17.66;66.57
80132;SHT30;69442;51.442;10.564;2023-07-02T02:31:16;17.67;66.83
80132;SHT30;69442;51.442;10.564;2023-07-02T02:33:42;17.65;66.77
80132;SHT30;69442;51.442;10.564;2023-07-02T02:36:07;17.62;66.74
80132;SHT30;69442;51.442;10.564;2023-07-02T02:38:33;17.60;66.76
80132;SHT30;69442;51.442;10.564;2023-07-02T02:40:59;17.62;66.82
80132;SHT30;69442;51.442;10.564;2023-07-02T02:43:25;17.62;66.83
80132;SHT30;69442;51.442;10.564;2023-07-02T02:45:51;17.60;66.64
80132;SHT30;69442;51.442;10.564;2023-07-02T02:48:16;17.57;66.66
80132;SHT30;69442;51.442;10.564;2023-07-02T02:50:42;17.57;66.53
80132;SHT30;69442;51.442;10.564;2023-07-02T02:53:09;17.57;66.63
80132;SHT30;69442;51.442;10.564;2023-07-02T02:55:35;17.57;66.65
80132;SHT30;69442;51.442;10.564;2023-07-02T02:58:01;17.56;66.52
80132;SHT30;69442;51.442;10.564;2023-07-02T03:00:26;17.54;66.27
80132;SHT30;69442;51.442;10.564;2023-07-02T03:02:52;17.59;66.29
80132;SHT30;69442;51.442;10.564;2023-07-02T03:05:17;17.54;66.19
80132;SHT30;69442;51.442;10.564;2023-07-02T03:07:42;17.53;66.36
80132;SHT30;69442;51.442;10.564;2023-07-02T03:10:08;17.54;66.44
80132;SHT30;69442;51.442;10.564;2023-07-02T03:12:34;17.52;66.36
80132;SHT30;69442;51.442;10.564;2023-07-02T03:14:59;17.52;66.46
80132;SHT30;69442;51.442;10.564;2023-07-02T03:17:24;17.49;66.47
80132;SHT30;69442;51.442;10.564;2023-07-02T03:19:50;17.47;66.45
80132;SHT30;69442;51.442;10.564;2023-07-02T03:22:16;17.49;66.34
80132;SHT30;69442;51.442;10.564;2023-07-02T03:24:41;17.47;66.42
80132;SHT30;69442;51.442;10.564;2023-07-02T03:27:07;17.46;66.48
80132;SHT30;69442;51.442;10.564;2023-07-02T03:29:34;17.46;66.39
80132;SHT30;69442;51.442;10.564;2023-07-02T03:31:59;17.45;66.69
80132;SHT30;69442;51.442;10.564;2023-07-02T03:34:25;17.42;66.59
80132;SHT30;69442;51.442;10.564;2023-07-02T03:36:50;17.42;66.72
80132;SHT30;69442;51.442;10.564;2023-07-02T03:39:15;17.42;66.58
80132;SHT30;69442;51.442;10.564;2023-07-02T03:41:44;17.38;66.70
80132;SHT30;69442;51.442;10.564;2023-07-02T03:44:09;17.39;66.72
80132;SHT30;69442;51.442;10.564;2023-07-02T03:46:35;17.38;66.69
80132;SHT30;69442;51.442;10.564;2023-07-02T03:49:02;17.35;66.63
80132;SHT30;69442;51.442;10.564;2023-07-02T03:51:28;17.35;66.63
80132;SHT30;69442;51.442;10.564;2023-07-02T03:53:53;17.35;66.62
80132;SHT30;69442;51.442;10.564;2023-07-02T03:56:19;17.33;66.52
80132;SHT30;69442;51.442;10.564;2023-07-02T03:58:44;17.32;66.53
80132;SHT30;69442;51.442;10.564;2023-07-02T04:01:09;17.31;66.53
80132;SHT30;69442;51.442;10.564;2023-07-02T04:03:35;17.31;66.35
80132;SHT30;69442;51.442;10.564;2023-07-02T04:06:01;17.31;66.56
80132;SHT30;69442;51.442;10.564;2023-07-02T04:08:26;17.28;66.47
80132;SHT30;69442;51.442;10.564;2023-07-02T04:10:54;17.26;66.52
80132;SHT30;69442;51.442;10.564;2023-07-02T04:13:19;17.26;66.51
80132;SHT30;69442;51.442;10.564;2023-07-02T04:15:45;17.26;66.59
80132;SHT30;69442;51.442;10.564;2023-07-02T04:18:10;17.28;66.73
80132;SHT30;69442;51.442;10.564;2023-07-02T04:20:36;17.28;66.72
80132;SHT30;69442;51.442;10.564;2023-07-02T04:23:04;17.25;66.70
80132;SHT30;69442;51.442;10.564;2023-07-02T04:25:29;17.25;66.72
80132;SHT30;69442;51.442;10.564;2023-07-02T04:27:55;17.28;66.88
80132;SHT30;69442;51.442;10.564;2023-07-02T04:30:21;17.22;66.72
80132;SHT30;69442;51.442;10.564;2023-07-02T04:32:47;17.22;66.82
80132;SHT30;69442;51.442;10.564;2023-07-02T04:35:12;17.22;66.84
80132;SHT30;69442;51.442;10.564;2023-07-02T04:37:38;17.19;66.87
80132;SHT30;69442;51.442;10.564;2023-07-02T04:40:04;17.15;66.90
80132;SHT30;69442;51.442;10.564;2023-07-02T04:42:39;17.19;67.04
80132;SHT30;69442;51.442;10.564;2023-07-02T04:45:07;17.18;67.08
80132;SHT30;69442;51.442;10.564;2023-07-02T04:47:34;17.15;67.12
80132;SHT30;69442;51.442;10.564;2023-07-02T04:50:00;17.18;67.17
80132;SHT30;69442;51.442;10.564;2023-07-02T04:52:26;17.19;67.25
80132;SHT30;69442;51.442;10.564;2023-07-02T04:54:51;17.18;67.29
80132;SHT30;69442;51.442;10.564;2023-07-02T04:57:16;17.21;67.27
80132;SHT30;69442;51.442;10.564;2023-07-02T04:59:42;17.21;67.43
80132;SHT30;69442;51.442;10.564;2023-07-02T05:02:08;17.21;67.46
80132;SHT30;69442;51.442;10.564;2023-07-02T05:04:33;17.25;67.56
80132;SHT30;69442;51.442;10.564;2023-07-02T05:07:02;17.26;67.59
80132;SHT30;69442;51.442;10.564;2023-07-02T05:09:27;17.28;67.63
80132;SHT30;69442;51.442;10.564;2023-07-02T05:11:53;17.26;67.81
80132;SHT30;69442;51.442;10.564;2023-07-02T05:14:18;17.25;67.65
80132;SHT30;69442;51.442;10.564;2023-07-02T05:16:44;17.26;67.66
80132;SHT30;69442;51.442;10.564;2023-07-02T05:19:09;17.26;67.80
80132;SHT30;69442;51.442;10.564;2023-07-02T05:21:34;17.29;67.86
80132;SHT30;69442;51.442;10.564;2023-07-02T05:24:00;17.31;67.73
80132;SHT30;69442;51.442;10.564;2023-07-02T05:26:25;17.29;67.67
80132;SHT30;69442;51.442;10.564;2023-07-02T05:28:52;17.31;67.78
80132;SHT30;69442;51.442;10.564;2023-07-02T05:31:18;17.31;67.74
80132;SHT30;69442;51.442;10.564;2023-07-02T05:33:43;17.31;67.86
80132;SHT30;69442;51.442;10.564;2023-07-02T05:36:08;17.31;67.78
80132;SHT30;69442;51.442;10.564;2023-07-02T05:38:34;17.33;67.80
80132;SHT30;69442;51.442;10.564;2023-07-02T05:40:59;17.33;67.88
80132;SHT30;69442;51.442;10.564;2023-07-02T05:43:24;17.38;67.90
80132;SHT30;69442;51.442;10.564;2023-07-02T05:45:51;17.40;67.70
80132;SHT30;69442;51.442;10.564;2023-07-02T05:48:17;17.40;67.52
80132;SHT30;69442;51.442;10.564;2023-07-02T05:50:43;17.43;67.70
80132;SHT30;69442;51.442;10.564;2023-07-02T05:53:08;17.46;67.64
80132;SHT30;69442;51.442;10.564;2023-07-02T05:55:35;17.47;67.56
80132;SHT30;69442;51.442;10.564;2023-07-02T05:58:00;17.52;67.52
80132;SHT30;69442;51.442;10.564;2023-07-02T06:00:28;17.53;67.69
80132;SHT30;69442;51.442;10.564;2023-07-02T06:02:53;17.56;67.72
80132;SHT30;69442;51.442;10.564;2023-07-02T06:05:19;17.56;67.68
80132;SHT30;69442;51.442;10.564;2023-07-02T06:07:44;17.59;67.65
80132;SHT30;69442;51.442;10.564;2023-07-02T06:10:10;17.62;67.41
80132;SHT30;69442;51.442;10.564;2023-07-02T06:12:35;17.67;66.95
80132;SHT30;69442;51.442;10.564;2023-07-02T06:15:02;17.69;66.65
80132;SHT30;69442;51.442;10.564;2023-07-02T06:17:29;17.71;66.52
80132;SHT30;69442;51.442;10.564;2023-07-02T06:19:56;17.74;66.34
80132;SHT30;69442;51.442;10.564;2023-07-02T06:22:22;17.76;66.14
80132;SHT30;69442;51.442;10.564;2023-07-02T06:24:48;17.80;66.02
80132;SHT30;69442;51.442;10.564;2023-07-02T06:27:13;17.83;66.11
80132;SHT30;69442;51.442;10.564;2023-07-02T06:29:39;17.86;65.79
80132;SHT30;69442;51.442;10.564;2023-07-02T06:32:04;17.87;65.74
80132;SHT30;69442;51.442;10.564;2023-07-02T06:34:30;17.93;65.76
80132;SHT30;69442;51.442;10.564;2023-07-02T06:36:55;17.97;65.43
80132;SHT30;69442;51.442;10.564;2023-07-02T06:39:21;17.98;65.38
80132;SHT30;69442;51.442;10.564;2023-07-02T06:41:46;18.04;65.18
80132;SHT30;69442;51.442;10.564;2023-07-02T06:44:11;18.09;65.01
80132;SHT30;69442;51.442;10.564;2023-07-02T06:46:37;18.12;64.89
80132;SHT30;69442;51.442;10.564;2023-07-02T06:49:02;18.16;64.86
80132;SHT30;69442;51.442;10.564;2023-07-02T06:51:28;18.21;64.63
80132;SHT30;69442;51.442;10.564;2023-07-02T06:53:54;18.26;64.34
80132;SHT30;69442;51.442;10.564;2023-07-02T06:56:20;18.29;64.02
80132;SHT30;69442;51.442;10.564;2023-07-02T06:58:45;18.35;63.99
80132;SHT30;69442;51.442;10.564;2023-07-02T07:01:11;18.39;63.72
80132;SHT30;69442;51.442;10.564;2023-07-02T07:03:36;18.45;63.71
80132;SHT30;69442;51.442;10.564;2023-07-02T07:06:02;18.49;63.69
80132;SHT30;69442;51.442;10.564;2023-07-02T07:08:27;18.50;63.67
80132;SHT30;69442;51.442;10.564;2023-07-02T07:10:53;18.56;63.43
80132;SHT30;69442;51.442;10.564;2023-07-02T07:13:18;18.57;63.41
80132;SHT30;69442;51.442;10.564;2023-07-02T07:15:44;18.59;63.21
80132;SHT30;69442;51.442;10.564;2023-07-02T07:18:10;18.64;63.05
80132;SHT30;69442;51.442;10.564;2023-07-02T07:20:36;18.71;62.97
80132;SHT30;69442;51.442;10.564;2023-07-02T07:23:05;18.73;63.04
80132;SHT30;69442;51.442;10.564;2023-07-02T07:25:30;18.78;62.81
80132;SHT30;69442;51.442;10.564;2023-07-02T07:27:58;18.81;62.74
80132;SHT30;69442;51.442;10.564;2023-07-02T07:30:24;18.87;62.55
80132;SHT30;69442;51.442;10.564;2023-07-02T07:32:50;18.92;62.39
80132;SHT30;69442;51.442;10.564;2023-07-02T07:35:16;18.95;62.29
80132;SHT30;69442;51.442;10.564;2023-07-02T07:37:41;19.00;62.19
80132;SHT30;69442;51.442;10.564;2023-07-02T07:40:07;19.02;62.08
80132;SHT30;69442;51.442;10.564;2023-07-02T07:42:32;19.07;61.90
80132;SHT30;69442;51.442;10.564;2023-07-02T07:44:58;19.11;61.91
80132;SHT30;69442;51.442;10.564;2023-07-02T07:47:23;19.15;61.74
80132;SHT30;69442;51.442;10.564;2023-07-02T07:49:49;19.18;61.55
80132;SHT30;69442;51.442;10.564;2023-07-02T07:52:14;19.23;61.41
80132;SHT30;69442;51.442;10.564;2023-07-02T07:54:39;19.28;61.43
80132;SHT30;69442;51.442;10.564;2023-07-02T07:57:06;19.30;61.31
80132;SHT30;69442;51.442;10.564;2023-07-02T07:59:31;19.37;61.18
80132;SHT30;69442;51.442;10.564;2023-07-02T08:01:57;19.40;61.21
80132;SHT30;69442;51.442;10.564;2023-07-02T08:04:22;19.47;61.15
80132;SHT30;69442;51.442;10.564;2023-07-02T08:06:47;19.52;61.07
80132;SHT30;69442;51.442;10.564;2023-07-02T08:09:13;19.59;60.92
80132;SHT30;69442;51.442;10.564;2023-07-02T08:11:38;19.66;60.75
80132;SHT30;69442;51.442;10.564;2023-07-02T08:14:04;19.73;60.55
80132;SHT30;69442;51.442;10.564;2023-07-02T08:16:29;19.82;60.44
80132;SHT30;69442;51.442;10.564;2023-07-02T08:18:54;19.87;60.38
80132;SHT30;69442;51.442;10.564;2023-07-02T08:21:20;19.95;60.19
80132;SHT30;69442;51.442;10.564;2023-07-02T08:23:45;20.05;60.14
80132;SHT30;69442;51.442;10.564;2023-07-02T08:26:11;20.14;59.83
80132;SHT30;69442;51.442;10.564;2023-07-02T08:28:37;20.21;59.52
80132;SHT30;69442;51.442;10.564;2023-07-02T08:31:04;20.32;59.26
80132;SHT30;69442;51.442;10.564;2023-07-02T08:33:29;20.42;59.17
80132;SHT30;69442;51.442;10.564;2023-07-02T08:35:55;20.49;58.85
80132;SHT30;69442;51.442;10.564;2023-07-02T08:38:21;20.56;58.45
80132;SHT30;69442;51.442;10.564;2023-07-02T08:40:46;20.59;58.33
80132;SHT30;69442;51.442;10.564;2023-07-02T08:43:13;20.60;58.24
80132;SHT30;69442;51.442;10.564;2023-07-02T08:45:40;20.59;58.45
80132;SHT30;69442;51.442;10.564;2023-07-02T08:48:07;20.63;58.52
80132;SHT30;69442;51.442;10.564;2023-07-02T08:50:33;20.66;58.52
80132;SHT30;69442;51.442;10.564;2023-07-02T08:52:58;20.67;57.78
80132;SHT30;69442;51.442;10.564;2023-07-02T08:55:23;20.68;57.73
80132;SHT30;69442;51.442;10.564;2023-07-02T08:57:52;20.70;57.52
80132;SHT30;69442;51.442;10.564;2023-07-02T09:00:17;20.71;57.46
80132;SHT30;69442;51.442;10.564;2023-07-02T09:02:43;20.74;57.68
80132;SHT30;69442;51.442;10.564;2023-07-02T09:05:09;20.77;56.71
80132;SHT30;69442;51.442;10.564;2023-07-02T09:07:49;20.78;56.86
80132;SHT30;69442;51.442;10.564;2023-07-02T09:10:28;20.81;56.84
80132;SHT30;69442;51.442;10.564;2023-07-02T09:13:06;20.90;56.75
80132;SHT30;69442;51.442;10.564;2023-07-02T09:15:39;20.99;56.85
80132;SHT30;69442;51.442;10.564;2023-07-02T09:18:17;21.06;56.16
80132;SHT30;69442;51.442;10.564;2023-07-02T09:20:43;21.19;56.31
80132;SHT30;69442;51.442;10.564;2023-07-02T09:23:08;21.26;56.22
80132;SHT30;69442;51.442;10.564;2023-07-02T09:25:37;21.36;56.58
80132;SHT30;69442;51.442;10.564;2023-07-02T09:28:22;21.45;56.04
80132;SHT30;69442;51.442;10.564;2023-07-02T09:30:55;21.54;55.16
80132;SHT30;69442;51.442;10.564;2023-07-02T09:33:24;21.58;54.30
80132;SHT30;69442;51.442;10.564;2023-07-02T09:35:49;21.67;55.06
80132;SHT30;69442;51.442;10.564;2023-07-02T09:38:19;21.73;55.01
80132;SHT30;69442;51.442;10.564;2023-07-02T09:40:49;21.83;55.32
80132;SHT30;69442;51.442;10.564;2023-07-02T09:43:16;21.91;54.57
80132;SHT30;69442;51.442;10.564;2023-07-02T09:45:43;22.01;54.25
80132;SHT30;69442;51.442;10.564;2023-07-02T09:48:14;22.09;53.79
80132;SHT30;69442;51.442;10.564;2023-07-02T09:50:44;22.19;53.97
80132;SHT30;69442;51.442;10.564;2023-07-02T09:53:11;22.26;53.78
80132;SHT30;69442;51.442;10.564;2023-07-02T09:55:37;22.35;53.24
80132;SHT30;69442;51.442;10.564;2023-07-02T09:58:03;22.37;53.26
80132;SHT30;69442;51.442;10.564;2023-07-02T10:00:32;22.45;52.85
80132;SHT30;69442;51.442;10.564;2023-07-02T10:02:57;22.47;53.13
80132;SHT30;69442;51.442;10.564;2023-07-02T10:05:25;22.53;53.46
80132;SHT30;69442;51.442;10.564;2023-07-02T10:07:51;22.56;52.26
80132;SHT30;69442;51.442;10.564;2023-07-02T10:10:31;22.61;52.29
80132;SHT30;69442;51.442;10.564;2023-07-02T10:12:57;22.70;53.45
80132;SHT30;69442;51.442;10.564;2023-07-02T10:15:30;22.81;53.09
80132;SHT30;69442;51.442;10.564;2023-07-02T10:18:01;22.94;52.37
80132;SHT30;69442;51.442;10.564;2023-07-02T10:20:37;22.99;51.97
80132;SHT30;69442;51.442;10.564;2023-07-02T10:23:03;23.06;52.20
80132;SHT30;69442;51.442;10.564;2023-07-02T10:25:36;23.14;51.59
80132;SHT30;69442;51.442;10.564;2023-07-02T10:28:18;23.23;51.60
80132;SHT30;69442;51.442;10.564;2023-07-02T10:30:44;23.33;51.15
80132;SHT30;69442;51.442;10.564;2023-07-02T10:33:20;23.40;51.07
80132;SHT30;69442;51.442;10.564;2023-07-02T10:35:47;23.45;50.74
80132;SHT30;69442;51.442;10.564;2023-07-02T10:38:22;23.54;50.36
80132;SHT30;69442;51.442;10.564;2023-07-02T10:40:59;23.61;50.72
80132;SHT30;69442;51.442;10.564;2023-07-02T10:43:29;23.67;50.86
80132;SHT30;69442;51.442;10.564;2023-07-02T10:45:55;23.70;50.45
80132;SHT30;69442;51.442;10.564;2023-07-02T10:48:20;23.73;50.90
80132;SHT30;69442;51.442;10.564;2023-07-02T10:50:46;23.77;49.23
80132;SHT30;69442;51.442;10.564;2023-07-02T10:53:19;23.73;48.91
80132;SHT30;69442;51.442;10.564;2023-07-02T10:55:45;23.74;49.21
80132;SHT30;69442;51.442;10.564;2023-07-02T10:58:11;23.78;49.75
80132;SHT30;69442;51.442;10.564;2023-07-02T11:01:03;23.78;48.77
80132;SHT30;69442;51.442;10.564;2023-07-02T11:03:28;23.77;48.88
80132;SHT30;69442;51.442;10.564;2023-07-02T11:05:55;23.77;49.22
80132;SHT30;69442;51.442;10.564;2023-07-02T11:08:21;23.78;49.51
80132;SHT30;69442;51.442;10.564;2023-07-02T11:10:46;23.79;48.95
80132;SHT30;69442;51.442;10.564;2023-07-02T11:13:15;23.88;48.89
80132;SHT30;69442;51.442;10.564;2023-07-02T11:15:42;23.93;48.30
80132;SHT30;69442;51.442;10.564;2023-07-02T11:18:12;23.98;47.18
80132;SHT30;69442;51.442;10.564;2023-07-02T11:20:38;24.01;47.48
80132;SHT30;69442;51.442;10.564;2023-07-02T11:23:05;24.06;48.15
80132;SHT30;69442;51.442;10.564;2023-07-02T11:25:31;24.15;48.90
80132;SHT30;69442;51.442;10.564;2023-07-02T11:28:03;24.26;48.76
80132;SHT30;69442;51.442;10.564;2023-07-02T11:30:29;24.40;48.68
80132;SHT30;69442;51.442;10.564;2023-07-02T11:32:55;24.41;46.53
80132;SHT30;69442;51.442;10.564;2023-07-02T11:35:21;24.44;45.72
80132;SHT30;69442;51.442;10.564;2023-07-02T11:37:47;24.46;45.71
80132;SHT30;69442;51.442;10.564;2023-07-02T11:40:15;24.43;45.01
80132;SHT30;69442;51.442;10.564;2023-07-02T11:42:42;24.44;45.32
80132;SHT30;69442;51.442;10.564;2023-07-02T11:45:08;24.44;45.48
80132;SHT30;69442;51.442;10.564;2023-07-02T11:47:34;24.50;45.00
80132;SHT30;69442;51.442;10.564;2023-07-02T11:49:59;24.52;44.27
80132;SHT30;69442;51.442;10.564;2023-07-02T11:52:25;24.60;45.32
80132;SHT30;69442;51.442;10.564;2023-07-02T11:54:50;24.64;44.71
80132;SHT30;69442;51.442;10.564;2023-07-02T11:57:16;24.70;44.93
80132;SHT30;69442;51.442;10.564;2023-07-02T11:59:42;24.80;45.33
80132;SHT30;69442;51.442;10.564;2023-07-02T12:02:07;24.90;45.59
80132;SHT30;69442;51.442;10.564;2023-07-02T12:04:33;24.96;45.08
80132;SHT30;69442;51.442;10.564;2023-07-02T12:06:59;25.01;44.25
80132;SHT30;69442;51.442;10.564;2023-07-02T12:09:26;25.08;45.02
80132;SHT30;69442;51.442;10.564;2023-07-02T12:11:52;25.15;45.13
80132;SHT30;69442;51.442;10.564;2023-07-02T12:14:18;25.20;44.46
80132;SHT30;69442;51.442;10.564;2023-07-02T12:16:43;25.27;44.81
80132;SHT30;69442;51.442;10.564;2023-07-02T12:19:09;25.37;43.91
80132;SHT30;69442;51.442;10.564;2023-07-02T12:21:35;25.46;44.42
80132;SHT30;69442;51.442;10.564;2023-07-02T12:24:00;25.49;44.21
80132;SHT30;69442;51.442;10.564;2023-07-02T12:26:26;25.56;44.31
80132;SHT30;69442;51.442;10.564;2023-07-02T12:28:51;25.61;44.73
80132;SHT30;69442;51.442;10.564;2023-07-02T12:31:16;25.63;44.04
80132;SHT30;69442;51.442;10.564;2023-07-02T12:33:42;25.64;43.56
80132;SHT30;69442;51.442;10.564;2023-07-02T12:36:07;25.69;43.49
80132;SHT30;69442;51.442;10.564;2023-07-02T12:38:33;25.64;42.90
80132;SHT30;69442;51.442;10.564;2023-07-02T12:40:58;25.63;42.90
80132;SHT30;69442;51.442;10.564;2023-07-02T12:43:23;25.59;42.39
80132;SHT30;69442;51.442;10.564;2023-07-02T12:45:49;25.57;43.77
80132;SHT30;69442;51.442;10.564;2023-07-02T12:48:15;25.59;43.34
80132;SHT30;69442;51.442;10.564;2023-07-02T12:50:40;25.63;43.79
80132;SHT30;69442;51.442;10.564;2023-07-02T12:53:05;25.63;41.96
80132;SHT30;69442;51.442;10.564;2023-07-02T12:55:31;25.69;43.13
80132;SHT30;69442;51.442;10.564;2023-07-02T12:57:56;25.70;41.68
80132;SHT30;69442;51.442;10.564;2023-07-02T13:00:22;25.69;42.12
80132;SHT30;69442;51.442;10.564;2023-07-02T13:02:48;25.70;42.43
80132;SHT30;69442;51.442;10.564;2023-07-02T13:05:13;25.66;42.10
80132;SHT30;69442;51.442;10.564;2023-07-02T13:07:39;25.70;43.14
80132;SHT30;69442;51.442;10.564;2023-07-02T13:10:05;25.73;43.42
80132;SHT30;69442;51.442;10.564;2023-07-02T13:12:30;25.80;43.44
80132;SHT30;69442;51.442;10.564;2023-07-02T13:14:56;25.84;43.22
80132;SHT30;69442;51.442;10.564;2023-07-02T13:17:21;25.87;42.25
80132;SHT30;69442;51.442;10.564;2023-07-02T13:19:47;25.87;41.78
80132;SHT30;69442;51.442;10.564;2023-07-02T13:22:14;25.84;42.02
80132;SHT30;69442;51.442;10.564;2023-07-02T13:24:39;25.81;41.88
80132;SHT30;69442;51.442;10.564;2023-07-02T13:27:09;25.81;42.80
80132;SHT30;69442;51.442;10.564;2023-07-02T13:29:36;25.80;41.99
80132;SHT30;69442;51.442;10.564;2023-07-02T13:32:02;25.77;41.71
80132;SHT30;69442;51.442;10.564;2023-07-02T13:34:27;25.73;41.64
80132;SHT30;69442;51.442;10.564;2023-07-02T13:36:53;25.70;41.96
80132;SHT30;69442;51.442;10.564;2023-07-02T13:39:18;25.71;42.05
80132;SHT30;69442;51.442;10.564;2023-07-02T13:41:43;25.75;42.04
80132;SHT30;69442;51.442;10.564;2023-07-02T13:44:09;25.73;41.14
80132;SHT30;69442;51.442;10.564;2023-07-02T13:46:34;25.67;40.86
80132;SHT30;69442;51.442;10.564;2023-07-02T13:49:00;25.64;41.05
80132;SHT30;69442;51.442;10.564;2023-07-02T13:51:26;25.63;41.70
80132;SHT30;69442;51.442;10.564;2023-07-02T13:53:51;25.64;42.30
80132;SHT30;69442;51.442;10.564;2023-07-02T13:56:16;25.66;42.39
80132;SHT30;69442;51.442;10.564;2023-07-02T14:01:10;25.63;42.19
80132;SHT30;69442;51.442;10.564;2023-07-02T14:03:36;25.60;42.18
80132;SHT30;69442;51.442;10.564;2023-07-02T14:06:01;25.61;42.61
80132;SHT30;69442;51.442;10.564;2023-07-02T14:08:27;25.70;42.98
80132;SHT30;69442;51.442;10.564;2023-07-02T14:10:52;25.77;42.87
80132;SHT30;69442;51.442;10.564;2023-07-02T14:13:17;25.74;41.83
80132;SHT30;69442;51.442;10.564;2023-07-02T14:15:43;25.80;42.47
80132;SHT30;69442;51.442;10.564;2023-07-02T14:18:08;25.81;42.17
80132;SHT30;69442;51.442;10.564;2023-07-02T14:20:33;25.77;41.52
80132;SHT30;69442;51.442;10.564;2023-07-02T14:22:59;25.71;42.01
80132;SHT30;69442;51.442;10.564;2023-07-02T14:25:24;25.69;41.68
80132;SHT30;69442;51.442;10.564;2023-07-02T14:27:49;25.69;42.05
80132;SHT30;69442;51.442;10.564;2023-07-02T14:30:15;25.64;41.36
80132;SHT30;69442;51.442;10.564;2023-07-02T14:32:40;25.63;41.90
80132;SHT30;69442;51.442;10.564;2023-07-02T14:35:08;25.59;41.97
80132;SHT30;69442;51.442;10.564;2023-07-02T14:37:34;25.64;42.91
80132;SHT30;69442;51.442;10.564;2023-07-02T14:39:59;25.71;43.63
80132;SHT30;69442;51.442;10.564;2023-07-02T14:42:24;25.82;43.35
80132;SHT30;69442;51.442;10.564;2023-07-02T14:44:50;25.85;43.16
80132;SHT30;69442;51.442;10.564;2023-07-02T14:47:15;25.91;43.47
80132;SHT30;69442;51.442;10.564;2023-07-02T14:49:41;25.97;43.59
80132;SHT30;69442;51.442;10.564;2023-07-02T14:52:06;26.02;43.44
80132;SHT30;69442;51.442;10.564;2023-07-02T14:54:34;26.06;42.70
80132;SHT30;69442;51.442;10.564;2023-07-02T14:56:59;26.15;43.35
80132;SHT30;69442;51.442;10.564;2023-07-02T14:59:24;26.16;42.25
80132;SHT30;69442;51.442;10.564;2023-07-02T15:01:50;26.16;41.94
80132;SHT30;69442;51.442;10.564;2023-07-02T15:04:15;26.16;41.97
80132;SHT30;69442;51.442;10.564;2023-07-02T15:06:41;26.25;42.20
80132;SHT30;69442;51.442;10.564;2023-07-02T15:09:06;26.29;42.12
80132;SHT30;69442;51.442;10.564;2023-07-02T15:11:31;26.35;42.02
80132;SHT30;69442;51.442;10.564;2023-07-02T15:13:57;26.40;42.70